sensor_id;sensor_type;location;lat;lon;timestamp;temperature;humidity
59961;DHT22;55902;-37.980;-63.602;2023-05-20T00:02:13;9.80;59.80
59961;DHT22;55902;-37.980;-63.602;2023-05-20T00:04:41;9.80;60.20
59961;DHT22;55902;-37.980;-63.602;2023-05-20T00:07:09;9.70;60.90
59961;DHT22;55902;-37.980;-63.602;2023-05-20T00:09:38;9.60;60.50
59961;DHT22;55902;-37.980;-63.602;2023-05-20T00:12:05;9.60;61.20
59961;DHT22;55902;-37.980;-63.602;2023-05-20T00:14:33;9.50;61.20
59961;DHT22;55902;-37.980;-63.602;2023-05-20T00:17:00;9.50;60.60
59961;DHT22;55902;-37.980;-63.602;2023-05-20T00:19:27;9.40;60.70
59961;DHT22;55902;-37.980;-63.602;2023-05-20T00:21:54;9.30;61.20
59961;DHT22;55902;-37.980;-63.602;2023-05-20T00:24:24;9.30;62.00
59961;DHT22;55902;-37.980;-63.602;2023-05-20T00:26:51;9.20;63.30
59961;DHT22;55902;-37.980;-63.602;2023-05-20T00:29:19;9.10;63.30
59961;DHT22;55902;-37.980;-63.602;2023-05-20T00:31:46;9.00;63.10
59961;DHT22;55902;-37.980;-63.602;2023-05-20T00:34:14;9.00;62.60
59961;DHT22;55902;-37.980;-63.602;2023-05-20T00:36:41;8.90;62.80
59961;DHT22;55902;-37.980;-63.602;2023-05-20T00:39:08;8.90;63.00
59961;DHT22;55902;-37.980;-63.602;2023-05-20T00:41:35;8.80;63.80
59961;DHT22;55902;-37.980;-63.602;2023-05-20T00:44:02;8.80;62.60
59961;DHT22;55902;-37.980;-63.602;2023-05-20T00:46:29;8.70;64.40
59961;DHT22;55902;-37.980;-63.602;2023-05-20T00:48:57;8.70;63.70
59961;DHT22;55902;-37.980;-63.602;2023-05-20T00:51:24;8.60;64.30
59961;DHT22;55902;-37.980;-63.602;2023-05-20T00:53:51;8.60;64.20
59961;DHT22;55902;-37.980;-63.602;2023-05-20T00:56:19;8.50;63.90
59961;DHT22;55902;-37.980;-63.602;2023-05-20T00:58:47;8.40;64.50
59961;DHT22;55902;-37.980;-63.602;2023-05-20T01:01:15;8.40;64.00
59961;DHT22;55902;-37.980;-63.602;2023-05-20T01:03:42;8.40;66.10
59961;DHT22;55902;-37.980;-63.602;2023-05-20T01:06:09;8.30;65.30
59961;DHT22;55902;-37.980;-63.602;2023-05-20T01:08:36;8.30;65.70
59961;DHT22;55902;-37.980;-63.602;2023-05-20T01:11:22;8.30;66.40
59961;DHT22;55902;-37.980;-63.602;2023-05-20T01:13:55;8.30;66.50
59961;DHT22;55902;-37.980;-63.602;2023-05-20T01:16:24;8.30;67.00
59961;DHT22;55902;-37.980;-63.602;2023-05-20T01:18:54;8.20;67.30
59961;DHT22;55902;-37.980;-63.602;2023-05-20T01:21:22;8.20;67.80
59961;DHT22;55902;-37.980;-63.602;2023-05-20T01:23:53;8.10;67.50
59961;DHT22;55902;-37.980;-63.602;2023-05-20T01:26:20;8.10;67.40
59961;DHT22;55902;-37.980;-63.602;2023-05-20T01:28:47;8.00;67.90
59961;DHT22;55902;-37.980;-63.602;2023-05-20T01:31:25;8.00;67.90
59961;DHT22;55902;-37.980;-63.602;2023-05-20T01:33:55;7.90;67.60
59961;DHT22;55902;-37.980;-63.602;2023-05-20T01:36:25;7.90;67.50
59961;DHT22;55902;-37.980;-63.602;2023-05-20T01:38:54;7.80;67.40
59961;DHT22;55902;-37.980;-63.602;2023-05-20T01:41:23;7.80;67.90
59961;DHT22;55902;-37.980;-63.602;2023-05-20T01:43:52;7.70;68.00
59961;DHT22;55902;-37.980;-63.602;2023-05-20T01:46:19;7.70;68.70
59961;DHT22;55902;-37.980;-63.602;2023-05-20T01:48:46;7.60;69.10
59961;DHT22;55902;-37.980;-63.602;2023-05-20T01:51:13;7.60;69.50
59961;DHT22;55902;-37.980;-63.602;2023-05-20T01:53:40;7.50;69.20
59961;DHT22;55902;-37.980;-63.602;2023-05-20T01:56:07;7.50;69.30
59961;DHT22;55902;-37.980;-63.602;2023-05-20T01:58:34;7.50;69.50
59961;DHT22;55902;-37.980;-63.602;2023-05-20T02:01:01;7.50;69.70
59961;DHT22;55902;-37.980;-63.602;2023-05-20T02:03:29;7.40;69.40
59961;DHT22;55902;-37.980;-63.602;2023-05-20T02:05:56;7.40;69.70
59961;DHT22;55902;-37.980;-63.602;2023-05-20T02:08:23;7.30;68.90
59961;DHT22;55902;-37.980;-63.602;2023-05-20T02:10:50;7.30;68.20
59961;DHT22;55902;-37.980;-63.602;2023-05-20T02:13:17;7.20;68.70
59961;DHT22;55902;-37.980;-63.602;2023-05-20T02:15:44;7.20;69.30
59961;DHT22;55902;-37.980;-63.602;2023-05-20T02:18:11;7.10;68.70
59961;DHT22;55902;-37.980;-63.602;2023-05-20T02:20:39;7.10;70.90
59961;DHT22;55902;-37.980;-63.602;2023-05-20T02:23:06;7.00;69.40
59961;DHT22;55902;-37.980;-63.602;2023-05-20T02:25:33;6.90;69.50
59961;DHT22;55902;-37.980;-63.602;2023-05-20T02:28:01;6.90;70.10
59961;DHT22;55902;-37.980;-63.602;2023-05-20T02:30:31;6.90;68.20
59961;DHT22;55902;-37.980;-63.602;2023-05-20T02:32:58;6.80;69.60
59961;DHT22;55902;-37.980;-63.602;2023-05-20T02:35:25;6.80;69.90
59961;DHT22;55902;-37.980;-63.602;2023-05-20T02:37:52;6.80;71.60
59961;DHT22;55902;-37.980;-63.602;2023-05-20T02:40:19;6.70;71.20
59961;DHT22;55902;-37.980;-63.602;2023-05-20T02:42:46;6.70;71.20
59961;DHT22;55902;-37.980;-63.602;2023-05-20T02:45:13;6.70;70.80
59961;DHT22;55902;-37.980;-63.602;2023-05-20T02:47:40;6.60;71.60
59961;DHT22;55902;-37.980;-63.602;2023-05-20T02:50:07;6.60;72.00
59961;DHT22;55902;-37.980;-63.602;2023-05-20T02:52:34;6.60;71.10
59961;DHT22;55902;-37.980;-63.602;2023-05-20T02:55:01;6.60;70.10
59961;DHT22;55902;-37.980;-63.602;2023-05-20T02:57:29;6.50;71.30
59961;DHT22;55902;-37.980;-63.602;2023-05-20T02:59:56;6.50;71.90
59961;DHT22;55902;-37.980;-63.602;2023-05-20T03:02:23;6.50;70.40
59961;DHT22;55902;-37.980;-63.602;2023-05-20T03:04:50;6.40;70.40
59961;DHT22;55902;-37.980;-63.602;2023-05-20T03:07:19;6.40;68.90
59961;DHT22;55902;-37.980;-63.602;2023-05-20T03:09:47;6.40;70.10
59961;DHT22;55902;-37.980;-63.602;2023-05-20T03:12:14;6.30;70.40
59961;DHT22;55902;-37.980;-63.602;2023-05-20T03:14:41;6.40;70.00
59961;DHT22;55902;-37.980;-63.602;2023-05-20T03:17:09;6.30;70.90
59961;DHT22;55902;-37.980;-63.602;2023-05-20T03:19:36;6.30;71.90
59961;DHT22;55902;-37.980;-63.602;2023-05-20T03:22:04;6.30;70.90
59961;DHT22;55902;-37.980;-63.602;2023-05-20T03:24:31;6.30;71.20
59961;DHT22;55902;-37.980;-63.602;2023-05-20T03:26:58;6.30;71.30
59961;DHT22;55902;-37.980;-63.602;2023-05-20T03:29:25;6.30;70.60
59961;DHT22;55902;-37.980;-63.602;2023-05-20T03:31:52;6.20;70.50
59961;DHT22;55902;-37.980;-63.602;2023-05-20T03:34:19;6.20;70.60
59961;DHT22;55902;-37.980;-63.602;2023-05-20T03:36:46;6.20;71.40
59961;DHT22;55902;-37.980;-63.602;2023-05-20T03:39:13;6.10;71.70
59961;DHT22;55902;-37.980;-63.602;2023-05-20T03:41:40;6.10;72.00
59961;DHT22;55902;-37.980;-63.602;2023-05-20T03:44:07;6.10;72.30
59961;DHT22;55902;-37.980;-63.602;2023-05-20T03:46:34;6.10;72.80
59961;DHT22;55902;-37.980;-63.602;2023-05-20T03:49:01;6.10;73.00
59961;DHT22;55902;-37.980;-63.602;2023-05-20T03:51:29;6.10;72.60
59961;DHT22;55902;-37.980;-63.602;2023-05-20T03:53:56;6.00;74.30
59961;DHT22;55902;-37.980;-63.602;2023-05-20T03:56:23;6.00;74.10
59961;DHT22;55902;-37.980;-63.602;2023-05-20T03:58:51;6.00;72.30
59961;DHT22;55902;-37.980;-63.602;2023-05-20T04:01:19;6.00;72.50
59961;DHT22;55902;-37.980;-63.602;2023-05-20T04:03:46;6.00;73.40
59961;DHT22;55902;-37.980;-63.602;2023-05-20T04:06:13;6.00;73.00
59961;DHT22;55902;-37.980;-63.602;2023-05-20T04:08:40;6.00;71.70
59961;DHT22;55902;-37.980;-63.602;2023-05-20T04:11:07;6.10;72.60
59961;DHT22;55902;-37.980;-63.602;2023-05-20T04:13:34;6.00;71.60
59961;DHT22;55902;-37.980;-63.602;2023-05-20T04:16:01;6.00;73.00
59961;DHT22;55902;-37.980;-63.602;2023-05-20T04:18:30;6.00;72.60
59961;DHT22;55902;-37.980;-63.602;2023-05-20T04:21:38;6.00;72.80
59961;DHT22;55902;-37.980;-63.602;2023-05-20T04:24:06;6.00;73.60
59961;DHT22;55902;-37.980;-63.602;2023-05-20T04:26:33;5.90;73.40
59961;DHT22;55902;-37.980;-63.602;2023-05-20T04:29:01;5.90;74.40
59961;DHT22;55902;-37.980;-63.602;2023-05-20T04:31:30;5.90;74.30
59961;DHT22;55902;-37.980;-63.602;2023-05-20T04:33:57;5.80;73.30
59961;DHT22;55902;-37.980;-63.602;2023-05-20T04:36:24;5.80;72.30
59961;DHT22;55902;-37.980;-63.602;2023-05-20T04:38:54;5.80;73.10
59961;DHT22;55902;-37.980;-63.602;2023-05-20T04:41:21;5.80;73.20
59961;DHT22;55902;-37.980;-63.602;2023-05-20T04:43:49;5.80;72.80
59961;DHT22;55902;-37.980;-63.602;2023-05-20T04:46:16;5.80;72.90
59961;DHT22;55902;-37.980;-63.602;2023-05-20T04:48:43;5.70;73.60
59961;DHT22;55902;-37.980;-63.602;2023-05-20T04:51:10;5.70;74.10
59961;DHT22;55902;-37.980;-63.602;2023-05-20T04:53:37;5.70;73.10
59961;DHT22;55902;-37.980;-63.602;2023-05-20T04:56:05;5.70;73.30
59961;DHT22;55902;-37.980;-63.602;2023-05-20T04:58:33;5.70;73.20
59961;DHT22;55902;-37.980;-63.602;2023-05-20T05:01:00;5.70;72.50
59961;DHT22;55902;-37.980;-63.602;2023-05-20T05:03:27;5.70;74.00
59961;DHT22;55902;-37.980;-63.602;2023-05-20T05:05:58;5.70;74.80
59961;DHT22;55902;-37.980;-63.602;2023-05-20T05:08:25;5.70;73.50
59961;DHT22;55902;-37.980;-63.602;2023-05-20T05:10:52;5.70;73.90
59961;DHT22;55902;-37.980;-63.602;2023-05-20T05:13:19;5.70;73.90
59961;DHT22;55902;-37.980;-63.602;2023-05-20T05:15:46;5.70;74.10
59961;DHT22;55902;-37.980;-63.602;2023-05-20T05:18:13;5.70;75.40
59961;DHT22;55902;-37.980;-63.602;2023-05-20T05:20:43;5.70;74.00
59961;DHT22;55902;-37.980;-63.602;2023-05-20T05:23:10;5.70;75.50
59961;DHT22;55902;-37.980;-63.602;2023-05-20T05:25:37;5.70;74.30
59961;DHT22;55902;-37.980;-63.602;2023-05-20T05:28:04;5.70;74.80
59961;DHT22;55902;-37.980;-63.602;2023-05-20T05:30:31;5.70;73.80
59961;DHT22;55902;-37.980;-63.602;2023-05-20T05:32:58;5.70;75.30
59961;DHT22;55902;-37.980;-63.602;2023-05-20T05:35:25;5.70;75.30
59961;DHT22;55902;-37.980;-63.602;2023-05-20T05:37:52;5.60;74.70
59961;DHT22;55902;-37.980;-63.602;2023-05-20T05:40:19;5.60;75.00
59961;DHT22;55902;-37.980;-63.602;2023-05-20T05:42:46;5.60;75.30
59961;DHT22;55902;-37.980;-63.602;2023-05-20T05:45:13;5.60;74.80
59961;DHT22;55902;-37.980;-63.602;2023-05-20T05:47:41;5.50;75.30
59961;DHT22;55902;-37.980;-63.602;2023-05-20T05:50:08;5.50;74.40
59961;DHT22;55902;-37.980;-63.602;2023-05-20T05:52:35;5.50;74.30
59961;DHT22;55902;-37.980;-63.602;2023-05-20T05:55:03;5.50;74.60
59961;DHT22;55902;-37.980;-63.602;2023-05-20T05:57:30;5.50;74.60
59961;DHT22;55902;-37.980;-63.602;2023-05-20T05:59:57;5.50;74.40
59961;DHT22;55902;-37.980;-63.602;2023-05-20T06:02:24;5.50;74.20
59961;DHT22;55902;-37.980;-63.602;2023-05-20T06:04:51;5.50;75.50
59961;DHT22;55902;-37.980;-63.602;2023-05-20T06:45:18;4.00;81.50
59961;DHT22;55902;-37.980;-63.602;2023-05-20T06:47:47;4.20;80.20
59961;DHT22;55902;-37.980;-63.602;2023-05-20T06:50:15;4.30;80.90
59961;DHT22;55902;-37.980;-63.602;2023-05-20T06:52:42;4.30;81.10
59961;DHT22;55902;-37.980;-63.602;2023-05-20T06:55:09;4.20;84.20
59961;DHT22;55902;-37.980;-63.602;2023-05-20T06:57:36;4.10;84.30
59961;DHT22;55902;-37.980;-63.602;2023-05-20T07:00:04;4.00;82.10
59961;DHT22;55902;-37.980;-63.602;2023-05-20T07:02:33;3.90;79.90
59961;DHT22;55902;-37.980;-63.602;2023-05-20T07:05:00;3.80;80.40
59961;DHT22;55902;-37.980;-63.602;2023-05-20T07:07:27;3.70;79.10
59961;DHT22;55902;-37.980;-63.602;2023-05-20T07:09:54;3.60;78.60
59961;DHT22;55902;-37.980;-63.602;2023-05-20T07:12:21;3.50;81.00
59961;DHT22;55902;-37.980;-63.602;2023-05-20T07:14:48;3.40;80.90
59961;DHT22;55902;-37.980;-63.602;2023-05-20T07:17:16;3.40;80.70
59961;DHT22;55902;-37.980;-63.602;2023-05-20T07:19:43;3.30;81.80
59961;DHT22;55902;-37.980;-63.602;2023-05-20T07:22:10;3.20;81.50
59961;DHT22;55902;-37.980;-63.602;2023-05-20T07:24:37;3.20;81.60
59961;DHT22;55902;-37.980;-63.602;2023-05-20T07:27:04;3.10;80.30
59961;DHT22;55902;-37.980;-63.602;2023-05-20T07:29:31;3.10;79.50
59961;DHT22;55902;-37.980;-63.602;2023-05-20T07:31:58;3.10;81.40
59961;DHT22;55902;-37.980;-63.602;2023-05-20T07:34:26;3.10;81.30
59961;DHT22;55902;-37.980;-63.602;2023-05-20T07:36:53;3.00;82.70
59961;DHT22;55902;-37.980;-63.602;2023-05-20T07:39:20;3.00;82.30
59961;DHT22;55902;-37.980;-63.602;2023-05-20T07:41:47;3.00;80.90
59961;DHT22;55902;-37.980;-63.602;2023-05-20T07:44:14;3.00;81.80
59961;DHT22;55902;-37.980;-63.602;2023-05-20T07:46:41;3.00;83.20
59961;DHT22;55902;-37.980;-63.602;2023-05-20T07:49:08;3.00;83.80
59961;DHT22;55902;-37.980;-63.602;2023-05-20T07:51:35;3.00;84.00
59961;DHT22;55902;-37.980;-63.602;2023-05-20T07:54:02;3.00;82.70
59961;DHT22;55902;-37.980;-63.602;2023-05-20T07:56:29;3.00;81.50
59961;DHT22;55902;-37.980;-63.602;2023-05-20T07:58:58;3.00;81.20
59961;DHT22;55902;-37.980;-63.602;2023-05-20T08:01:26;2.90;81.10
59961;DHT22;55902;-37.980;-63.602;2023-05-20T08:03:53;2.90;82.70
59961;DHT22;55902;-37.980;-63.602;2023-05-20T08:06:21;2.90;82.70
59961;DHT22;55902;-37.980;-63.602;2023-05-20T08:08:51;2.80;83.20
59961;DHT22;55902;-37.980;-63.602;2023-05-20T08:11:21;2.80;82.50
59961;DHT22;55902;-37.980;-63.602;2023-05-20T08:13:48;2.80;85.30
59961;DHT22;55902;-37.980;-63.602;2023-05-20T08:16:15;2.80;84.90
59961;DHT22;55902;-37.980;-63.602;2023-05-20T08:18:42;2.70;82.30
59961;DHT22;55902;-37.980;-63.602;2023-05-20T08:21:10;2.70;82.20
59961;DHT22;55902;-37.980;-63.602;2023-05-20T08:23:37;2.70;82.50
59961;DHT22;55902;-37.980;-63.602;2023-05-20T08:26:04;2.70;84.90
59961;DHT22;55902;-37.980;-63.602;2023-05-20T08:28:31;2.70;86.10
59961;DHT22;55902;-37.980;-63.602;2023-05-20T08:31:01;2.70;84.70
59961;DHT22;55902;-37.980;-63.602;2023-05-20T08:33:28;2.70;85.20
59961;DHT22;55902;-37.980;-63.602;2023-05-20T08:35:54;2.60;85.10
59961;DHT22;55902;-37.980;-63.602;2023-05-20T08:38:21;2.60;85.80
59961;DHT22;55902;-37.980;-63.602;2023-05-20T08:40:55;2.60;85.30
59961;DHT22;55902;-37.980;-63.602;2023-05-20T08:43:23;2.60;84.40
59961;DHT22;55902;-37.980;-63.602;2023-05-20T08:45:51;2.60;83.20
59961;DHT22;55902;-37.980;-63.602;2023-05-20T08:48:18;2.70;83.20
59961;DHT22;55902;-37.980;-63.602;2023-05-20T08:50:49;2.70;84.20
59961;DHT22;55902;-37.980;-63.602;2023-05-20T08:53:18;2.70;85.50
59961;DHT22;55902;-37.980;-63.602;2023-05-20T08:55:54;2.80;84.60
59961;DHT22;55902;-37.980;-63.602;2023-05-20T08:58:23;2.80;84.30
59961;DHT22;55902;-37.980;-63.602;2023-05-20T09:00:51;2.80;82.50
59961;DHT22;55902;-37.980;-63.602;2023-05-20T09:03:18;2.90;81.80
59961;DHT22;55902;-37.980;-63.602;2023-05-20T09:05:49;2.90;83.10
59961;DHT22;55902;-37.980;-63.602;2023-05-20T09:08:16;2.90;82.60
59961;DHT22;55902;-37.980;-63.602;2023-05-20T09:10:43;3.00;82.30
59961;DHT22;55902;-37.980;-63.602;2023-05-20T09:13:11;3.00;83.20
59961;DHT22;55902;-37.980;-63.602;2023-05-20T09:15:38;3.00;84.50
59961;DHT22;55902;-37.980;-63.602;2023-05-20T09:18:06;3.10;83.30
59961;DHT22;55902;-37.980;-63.602;2023-05-20T09:20:36;3.10;82.20
59961;DHT22;55902;-37.980;-63.602;2023-05-20T09:23:08;3.10;82.70
59961;DHT22;55902;-37.980;-63.602;2023-05-20T09:25:36;3.10;81.20
59961;DHT22;55902;-37.980;-63.602;2023-05-20T09:28:09;3.10;81.10
59961;DHT22;55902;-37.980;-63.602;2023-05-20T09:30:37;3.10;82.70
59961;DHT22;55902;-37.980;-63.602;2023-05-20T09:33:04;3.10;84.20
59961;DHT22;55902;-37.980;-63.602;2023-05-20T09:35:35;3.10;85.00
59961;DHT22;55902;-37.980;-63.602;2023-05-20T09:38:04;3.10;85.60
59961;DHT22;55902;-37.980;-63.602;2023-05-20T09:40:35;3.10;83.40
59961;DHT22;55902;-37.980;-63.602;2023-05-20T09:43:06;3.00;84.50
59961;DHT22;55902;-37.980;-63.602;2023-05-20T09:45:34;3.00;85.70
59961;DHT22;55902;-37.980;-63.602;2023-05-20T09:48:01;2.90;85.80
59961;DHT22;55902;-37.980;-63.602;2023-05-20T09:50:30;2.90;87.00
59961;DHT22;55902;-37.980;-63.602;2023-05-20T09:53:02;2.90;85.50
59961;DHT22;55902;-37.980;-63.602;2023-05-20T09:55:29;2.80;85.20
59961;DHT22;55902;-37.980;-63.602;2023-05-20T09:58:00;2.80;85.60
59961;DHT22;55902;-37.980;-63.602;2023-05-20T10:00:27;2.80;85.60
59961;DHT22;55902;-37.980;-63.602;2023-05-20T10:02:55;2.70;86.10
59961;DHT22;55902;-37.980;-63.602;2023-05-20T10:05:29;2.70;85.90
59961;DHT22;55902;-37.980;-63.602;2023-05-20T10:17:04;2.50;84.40
59961;DHT22;55902;-37.980;-63.602;2023-05-20T10:19:35;2.50;84.10
59961;DHT22;55902;-37.980;-63.602;2023-05-20T10:22:06;2.50;85.80
59961;DHT22;55902;-37.980;-63.602;2023-05-20T10:24:35;2.40;86.10
59961;DHT22;55902;-37.980;-63.602;2023-05-20T10:27:06;2.50;86.10
59961;DHT22;55902;-37.980;-63.602;2023-05-20T10:32:31;2.50;85.10
59961;DHT22;55902;-37.980;-63.602;2023-05-20T10:35:04;2.50;86.50
59961;DHT22;55902;-37.980;-63.602;2023-05-20T10:37:33;2.50;86.90
59961;DHT22;55902;-37.980;-63.602;2023-05-20T10:42:35;2.50;86.70
59961;DHT22;55902;-37.980;-63.602;2023-05-20T10:45:03;2.50;87.70
59961;DHT22;55902;-37.980;-63.602;2023-05-20T10:47:31;2.50;89.30
59961;DHT22;55902;-37.980;-63.602;2023-05-20T10:49:58;2.50;90.00
59961;DHT22;55902;-37.980;-63.602;2023-05-20T10:52:37;2.50;90.20
59961;DHT22;55902;-37.980;-63.602;2023-05-20T10:55:04;2.50;90.70
59961;DHT22;55902;-37.980;-63.602;2023-05-20T10:57:33;2.50;90.80
59961;DHT22;55902;-37.980;-63.602;2023-05-20T11:00:00;2.50;91.00
59961;DHT22;55902;-37.980;-63.602;2023-05-20T11:02:30;2.50;90.60
59961;DHT22;55902;-37.980;-63.602;2023-05-20T11:04:58;2.50;90.60
59961;DHT22;55902;-37.980;-63.602;2023-05-20T11:07:29;2.50;90.70
59961;DHT22;55902;-37.980;-63.602;2023-05-20T11:09:57;2.50;90.60
59961;DHT22;55902;-37.980;-63.602;2023-05-20T11:12:25;2.50;90.60
59961;DHT22;55902;-37.980;-63.602;2023-05-20T11:14:53;2.50;90.60
59961;DHT22;55902;-37.980;-63.602;2023-05-20T11:17:20;2.50;90.90
59961;DHT22;55902;-37.980;-63.602;2023-05-20T11:19:47;2.50;91.30
59961;DHT22;55902;-37.980;-63.602;2023-05-20T11:22:14;2.50;91.40
59961;DHT22;55902;-37.980;-63.602;2023-05-20T11:24:41;2.60;91.20
59961;DHT22;55902;-37.980;-63.602;2023-05-20T11:27:09;2.60;91.40
59961;DHT22;55902;-37.980;-63.602;2023-05-20T11:29:36;2.70;91.50
59961;DHT22;55902;-37.980;-63.602;2023-05-20T11:32:03;2.70;91.60
59961;DHT22;55902;-37.980;-63.602;2023-05-20T11:34:35;2.80;91.80
59961;DHT22;55902;-37.980;-63.602;2023-05-20T11:37:06;2.80;91.50
59961;DHT22;55902;-37.980;-63.602;2023-05-20T11:39:34;2.90;90.90
59961;DHT22;55902;-37.980;-63.602;2023-05-20T11:42:02;3.00;91.10
59961;DHT22;55902;-37.980;-63.602;2023-05-20T11:44:31;3.00;91.70
59961;DHT22;55902;-37.980;-63.602;2023-05-20T11:47:02;3.10;91.80
59961;DHT22;55902;-37.980;-63.602;2023-05-20T11:49:29;3.20;91.80
59961;DHT22;55902;-37.980;-63.602;2023-05-20T11:51:56;3.20;91.80
59961;DHT22;55902;-37.980;-63.602;2023-05-20T11:54:24;3.30;91.50
59961;DHT22;55902;-37.980;-63.602;2023-05-20T11:56:53;3.30;91.40
59961;DHT22;55902;-37.980;-63.602;2023-05-20T11:59:23;3.40;91.60
59961;DHT22;55902;-37.980;-63.602;2023-05-20T12:01:50;3.50;91.50
59961;DHT22;55902;-37.980;-63.602;2023-05-20T12:04:17;3.50;91.40
59961;DHT22;55902;-37.980;-63.602;2023-05-20T12:06:44;3.50;91.50
59961;DHT22;55902;-37.980;-63.602;2023-05-20T12:09:12;3.60;91.60
59961;DHT22;55902;-37.980;-63.602;2023-05-20T12:11:39;3.60;91.50
59961;DHT22;55902;-37.980;-63.602;2023-05-20T12:14:07;3.70;91.30
59961;DHT22;55902;-37.980;-63.602;2023-05-20T12:16:35;3.70;91.80
59961;DHT22;55902;-37.980;-63.602;2023-05-20T12:19:03;3.80;91.50
59961;DHT22;55902;-37.980;-63.602;2023-05-20T12:21:30;3.90;91.60
59961;DHT22;55902;-37.980;-63.602;2023-05-20T12:23:58;4.20;91.20
59961;DHT22;55902;-37.980;-63.602;2023-05-20T12:26:27;4.40;90.80
59961;DHT22;55902;-37.980;-63.602;2023-05-20T12:28:54;4.30;90.50
59961;DHT22;55902;-37.980;-63.602;2023-05-20T12:31:21;4.30;90.20
59961;DHT22;55902;-37.980;-63.602;2023-05-20T12:33:48;4.20;90.60
59961;DHT22;55902;-37.980;-63.602;2023-05-20T12:36:16;4.20;90.70
59961;DHT22;55902;-37.980;-63.602;2023-05-20T12:38:44;4.20;90.70
59961;DHT22;55902;-37.980;-63.602;2023-05-20T12:41:11;4.20;91.40
59961;DHT22;55902;-37.980;-63.602;2023-05-20T12:43:38;4.30;92.00
59961;DHT22;55902;-37.980;-63.602;2023-05-20T12:46:05;4.40;91.80
59961;DHT22;55902;-37.980;-63.602;2023-05-20T12:48:32;4.70;92.50
59961;DHT22;55902;-37.980;-63.602;2023-05-20T12:50:59;5.10;92.60
59961;DHT22;55902;-37.980;-63.602;2023-05-20T12:53:27;5.70;92.10
59961;DHT22;55902;-37.980;-63.602;2023-05-20T12:55:54;6.30;91.40
59961;DHT22;55902;-37.980;-63.602;2023-05-20T12:58:21;7.10;90.50
59961;DHT22;55902;-37.980;-63.602;2023-05-20T13:00:48;7.80;89.50
59961;DHT22;55902;-37.980;-63.602;2023-05-20T13:03:15;8.40;87.80
59961;DHT22;55902;-37.980;-63.602;2023-05-20T13:05:42;9.10;85.70
59961;DHT22;55902;-37.980;-63.602;2023-05-20T13:08:09;9.70;84.10
59961;DHT22;55902;-37.980;-63.602;2023-05-20T13:10:37;10.30;82.50
59961;DHT22;55902;-37.980;-63.602;2023-05-20T13:13:05;10.80;80.90
59961;DHT22;55902;-37.980;-63.602;2023-05-20T13:15:32;11.20;79.00
59961;DHT22;55902;-37.980;-63.602;2023-05-20T13:17:59;11.70;77.60
59961;DHT22;55902;-37.980;-63.602;2023-05-20T13:20:26;12.00;74.30
59961;DHT22;55902;-37.980;-63.602;2023-05-20T13:22:53;12.30;72.30
59961;DHT22;55902;-37.980;-63.602;2023-05-20T13:25:20;12.50;72.00
59961;DHT22;55902;-37.980;-63.602;2023-05-20T13:27:47;12.80;68.80
59961;DHT22;55902;-37.980;-63.602;2023-05-20T13:30:14;13.00;68.40
59961;DHT22;55902;-37.980;-63.602;2023-05-20T13:32:41;13.20;67.40
59961;DHT22;55902;-37.980;-63.602;2023-05-20T13:35:08;13.40;65.80
59961;DHT22;55902;-37.980;-63.602;2023-05-20T13:37:35;13.50;63.40
59961;DHT22;55902;-37.980;-63.602;2023-05-20T13:40:03;13.70;63.70
59961;DHT22;55902;-37.980;-63.602;2023-05-20T13:42:30;13.90;63.00
59961;DHT22;55902;-37.980;-63.602;2023-05-20T13:44:57;14.00;62.00
59961;DHT22;55902;-37.980;-63.602;2023-05-20T13:47:24;14.10;61.10
59961;DHT22;55902;-37.980;-63.602;2023-05-20T13:49:51;14.10;59.70
59961;DHT22;55902;-37.980;-63.602;2023-05-20T13:52:18;14.20;62.10
59961;DHT22;55902;-37.980;-63.602;2023-05-20T13:54:45;14.40;60.90
59961;DHT22;55902;-37.980;-63.602;2023-05-20T13:57:14;14.50;59.90
59961;DHT22;55902;-37.980;-63.602;2023-05-20T13:59:41;14.70;59.10
59961;DHT22;55902;-37.980;-63.602;2023-05-20T14:02:08;14.70;59.40
59961;DHT22;55902;-37.980;-63.602;2023-05-20T14:04:35;14.80;58.70
59961;DHT22;55902;-37.980;-63.602;2023-05-20T14:07:10;15.00;57.90
59961;DHT22;55902;-37.980;-63.602;2023-05-20T14:09:37;15.10;57.60
59961;DHT22;55902;-37.980;-63.602;2023-05-20T14:12:04;15.40;57.70
59961;DHT22;55902;-37.980;-63.602;2023-05-20T14:14:31;15.40;54.50
59961;DHT22;55902;-37.980;-63.602;2023-05-20T14:16:58;15.50;55.70
59961;DHT22;55902;-37.980;-63.602;2023-05-20T14:19:26;15.70;54.30
59961;DHT22;55902;-37.980;-63.602;2023-05-20T14:21:53;15.70;54.20
59961;DHT22;55902;-37.980;-63.602;2023-05-20T14:24:20;16.00;53.90
59961;DHT22;55902;-37.980;-63.602;2023-05-20T14:26:47;16.20;54.80
59961;DHT22;55902;-37.980;-63.602;2023-05-20T14:29:14;16.50;53.40
59961;DHT22;55902;-37.980;-63.602;2023-05-20T14:31:41;16.70;52.20
59961;DHT22;55902;-37.980;-63.602;2023-05-20T14:34:08;16.70;51.80
59961;DHT22;55902;-37.980;-63.602;2023-05-20T14:36:35;16.60;50.40
59961;DHT22;55902;-37.980;-63.602;2023-05-20T14:39:02;16.90;51.10
59961;DHT22;55902;-37.980;-63.602;2023-05-20T14:41:29;17.00;50.10
59961;DHT22;55902;-37.980;-63.602;2023-05-20T14:43:56;17.10;49.70
59961;DHT22;55902;-37.980;-63.602;2023-05-20T14:46:23;17.30;50.10
59961;DHT22;55902;-37.980;-63.602;2023-05-20T14:48:50;17.20;49.80
59961;DHT22;55902;-37.980;-63.602;2023-05-20T14:51:17;17.40;50.30
59961;DHT22;55902;-37.980;-63.602;2023-05-20T14:53:44;17.40;49.80
59961;DHT22;55902;-37.980;-63.602;2023-05-20T14:56:11;17.30;49.70
59961;DHT22;55902;-37.980;-63.602;2023-05-20T14:58:38;17.00;48.00
59961;DHT22;55902;-37.980;-63.602;2023-05-20T15:01:06;17.20;50.00
59961;DHT22;55902;-37.980;-63.602;2023-05-20T15:03:33;17.50;49.40
59961;DHT22;55902;-37.980;-63.602;2023-05-20T15:06:00;17.70;48.30
59961;DHT22;55902;-37.980;-63.602;2023-05-20T15:08:27;17.80;48.30
59961;DHT22;55902;-37.980;-63.602;2023-05-20T15:10:54;17.90;47.20
59961;DHT22;55902;-37.980;-63.602;2023-05-20T15:13:21;18.00;46.40
59961;DHT22;55902;-37.980;-63.602;2023-05-20T15:15:48;18.00;45.50
59961;DHT22;55902;-37.980;-63.602;2023-05-20T15:18:15;18.00;45.80
59961;DHT22;55902;-37.980;-63.602;2023-05-20T15:20:42;18.20;46.90
59961;DHT22;55902;-37.980;-63.602;2023-05-20T15:23:09;17.80;45.60
59961;DHT22;55902;-37.980;-63.602;2023-05-20T15:25:36;18.20;47.20
59961;DHT22;55902;-37.980;-63.602;2023-05-20T15:28:03;18.40;47.90
59961;DHT22;55902;-37.980;-63.602;2023-05-20T15:30:30;18.70;47.50
59961;DHT22;55902;-37.980;-63.602;2023-05-20T15:32:57;18.90;45.80
59961;DHT22;55902;-37.980;-63.602;2023-05-20T15:35:24;18.70;44.50
59961;DHT22;55902;-37.980;-63.602;2023-05-20T15:37:52;18.70;46.80
59961;DHT22;55902;-37.980;-63.602;2023-05-20T15:40:19;18.90;46.00
59961;DHT22;55902;-37.980;-63.602;2023-05-20T15:42:47;18.80;45.00
59961;DHT22;55902;-37.980;-63.602;2023-05-20T15:45:14;18.90;45.70
59961;DHT22;55902;-37.980;-63.602;2023-05-20T15:47:42;18.90;45.10
59961;DHT22;55902;-37.980;-63.602;2023-05-20T15:50:09;19.00;46.20
59961;DHT22;55902;-37.980;-63.602;2023-05-20T15:52:37;18.90;45.80
59961;DHT22;55902;-37.980;-63.602;2023-05-20T15:55:04;18.80;47.40
59961;DHT22;55902;-37.980;-63.602;2023-05-20T15:57:32;19.00;46.10